Time;durP1;ratioP1;P1;durP2;ratioP2;P2;SDS_P1;SDS_P2;PMS_P1;PMS_P2;Temp;Humidity;BMP_temperature;BMP_pressure;BME280_temperature;BME280_humidity;BME280_pressure;Samples;Min_cycle;Max_cycle;Signal;HPM_P1;HPM_P2
2022/11/18 00:00:07;;;;;;;689.22;511.48;;;;;;;-1.67;100.00;96826.34;7387025;19;20039;-46
2022/11/18 00:02:40;;;;;;;677.90;511.05;;;;;;;-1.72;100.00;96834.22;7383999;19;20003;-45
2022/11/18 00:05:13;;;;;;;659.70;497.92;;;;;;;-1.63;100.00;96825.34;7391146;19;20015;-44
2022/11/18 00:07:49;;;;;;;426.80;372.58;;;;;;;-1.77;100.00;96814.66;7390606;19;20045;-47
2022/11/18 00:10:23;;;;;;;435.65;390.88;;;;;;;-1.81;100.00;96824.22;7391132;19;20047;-44
2022/11/18 00:15:41;;;;;;;437.48;392.85;;;;;;;-1.86;100.00;96826.09;7386392;19;20018;-45
2022/11/18 00:18:15;;;;;;;394.60;352.38;;;;;;;-1.78;100.00;96825.84;7389951;19;20346;-45
2022/11/18 00:20:48;;;;;;;415.05;370.73;;;;;;;-1.59;100.00;96821.75;7383265;19;20011;-44
2022/11/18 00:23:24;;;;;;;384.05;342.58;;;;;;;-1.68;100.00;96827.25;7390768;19;20082;-45
2022/11/18 00:25:57;;;;;;;374.80;333.67;;;;;;;-1.62;100.00;96827.00;7389347;19;20379;-46
2022/11/18 00:28:30;;;;;;;436.60;392.70;;;;;;;-1.57;100.00;96828.53;7389363;19;20027;-44
2022/11/18 00:31:08;;;;;;;433.85;390.52;;;;;;;-1.68;100.00;96838.38;7390193;19;20025;-45
2022/11/18 00:33:41;;;;;;;419.70;374.95;;;;;;;-1.82;100.00;96837.97;7384254;19;20010;-45
2022/11/18 00:36:17;;;;;;;413.52;369.98;;;;;;;-1.73;100.00;96836.84;7388314;19;20042;-52
2022/11/18 00:38:53;;;;;;;399.02;356.58;;;;;;;-1.83;100.00;96838.88;7389395;19;20011;-58
2022/11/18 00:42:49;;;;;;;388.27;345.83;;;;;;;-1.81;100.00;96844.84;7389336;19;20011;-45
2022/11/18 00:44:20;;;;;;;417.30;372.63;;;;;;;-1.89;100.00;96839.06;7382812;19;20014;-46
2022/11/18 00:46:53;;;;;;;395.98;353.15;;;;;;;-1.92;100.00;96837.44;7386372;19;20010;-47
2022/11/18 00:49:26;;;;;;;412.02;368.98;;;;;;;-1.87;100.00;96857.91;7388838;19;20031;-47
2022/11/18 00:52:00;;;;;;;421.52;377.08;;;;;;;-1.80;100.00;96853.38;7383489;19;20065;-44
2022/11/18 00:54:35;;;;;;;422.35;378.05;;;;;;;-1.73;100.00;96854.88;7387972;19;20010;-45
2022/11/18 00:57:09;;;;;;;429.80;384.73;;;;;;;-1.86;100.00;96854.44;7382925;19;20010;-47
2022/11/18 00:59:42;;;;;;;431.95;387.35;;;;;;;-1.70;100.00;96858.22;7387426;19;20025;-44
2022/11/18 01:02:16;;;;;;;438.67;394.08;;;;;;;-1.86;100.00;96864.75;7386639;19;20011;-45
2022/11/18 01:04:49;;;;;;;433.05;387.75;;;;;;;-1.81;100.00;96851.72;7384597;19;20094;-45
2022/11/18 01:07:22;;;;;;;414.00;370.23;;;;;;;-1.76;100.00;96855.81;7390175;19;20012;-45
2022/11/18 01:09:58;;;;;;;413.08;369.00;;;;;;;-1.67;100.00;96852.91;7385786;19;20021;-56
2022/11/18 01:15:20;;;;;;;471.38;419.55;;;;;;;-1.76;100.00;96853.25;7383059;19;20026;-44
2022/11/18 01:17:53;;;;;;;401.73;359.02;;;;;;;-1.72;100.00;96848.81;7387346;19;20016;-48
2022/11/18 01:20:27;;;;;;;628.88;488.92;;;;;;;-1.74;100.00;96846.31;7385221;19;20002;-46
2022/11/18 01:23:00;;;;;;;567.42;469.70;;;;;;;-1.77;100.00;96854.16;7383174;19;20033;-44
2022/11/18 01:25:36;;;;;;;548.92;462.00;;;;;;;-1.79;100.00;96842.22;7388312;19;20014;-44
2022/11/18 01:28:10;;;;;;;640.70;494.98;;;;;;;-1.64;100.00;96829.63;7380970;19;20544;-46
2022/11/18 01:30:44;;;;;;;431.70;387.83;;;;;;;-1.59;100.00;96827.75;7387693;19;20033;-44
2022/11/18 01:33:18;;;;;;;433.63;389.10;;;;;;;-1.43;100.00;96818.59;7386469;19;20086;-46
2022/11/18 01:35:51;;;;;;;665.65;515.97;;;;;;;-1.24;100.00;96813.59;7386813;19;20011;-45
2022/11/18 01:38:26;;;;;;;598.88;483.85;;;;;;;-1.50;100.00;96811.97;7387577;19;20457;-44
2022/11/18 01:41:02;;;;;;;555.95;457.25;;;;;;;-1.81;100.00;96801.06;7381034;19;20006;-54
2022/11/18 01:43:54;;;;;;;505.48;433.83;;;;;;;-1.84;100.00;96796.00;7386684;19;20007;-48
2022/11/18 01:46:29;;;;;;;433.17;387.40;;;;;;;-1.66;100.00;96794.50;7380391;19;20014;-45
2022/11/18 01:49:05;;;;;;;485.38;410.08;;;;;;;-1.66;100.00;96794.50;7386740;19;20403;-45
2022/11/18 01:51:45;;;;;;;440.25;379.15;;;;;;;-1.69;100.00;96768.84;7378512;19;20015;-57
2022/11/18 01:54:22;;;;;;;421.38;376.52;;;;;;;-1.63;100.00;96778.94;7384529;19;20493;-45
2022/11/18 01:57:08;;;;;;;423.52;378.50;;;;;;;-1.81;100.00;96764.97;7383637;19;20006;-48
2022/11/18 01:59:45;;;;;;;407.15;363.40;;;;;;;-1.74;100.00;96763.03;7384788;19;20021;-46
2022/11/18 02:02:21;;;;;;;413.00;368.95;;;;;;;-1.50;100.00;96764.72;7381917;19;20006;-57
2022/11/18 02:04:57;;;;;;;430.40;386.00;;;;;;;-1.56;100.00;96770.09;7386399;19;20097;-44
2022/11/18 02:07:31;;;;;;;425.38;381.52;;;;;;;-1.69;100.00;96756.81;7387521;19;20010;-45
2022/11/18 02:10:08;;;;;;;433.63;388.92;;;;;;;-1.63;100.00;96750.59;7382239;19;20006;-44
2022/11/18 02:12:44;;;;;;;425.90;381.85;;;;;;;-1.48;100.00;96761.22;7384455;19;20014;-45
2022/11/18 02:15:18;;;;;;;434.33;389.00;;;;;;;-1.81;100.00;96770.13;7380310;19;20490;-52
2022/11/18 02:17:57;;;;;;;423.77;380.25;;;;;;;-1.70;100.00;96772.31;7388008;19;20066;-44
2022/11/18 02:20:36;;;;;;;433.90;389.30;;;;;;;-1.69;100.00;96764.53;7383006;19;20010;-57
2022/11/18 02:23:47;;;;;;;422.65;378.92;;;;;;;-1.79;100.00;96767.50;7382552;19;20090;-48
2022/11/18 02:26:59;;;;;;;420.60;377.23;;;;;;;-1.92;100.00;96777.38;7385936;19;20038;-44
2022/11/18 02:29:40;;;;;;;424.88;381.52;;;;;;;-1.76;100.00;96778.53;7385372;19;20010;-46
2022/11/18 02:32:19;;;;;;;413.55;371.08;;;;;;;-1.86;100.00;96784.06;7382551;19;20480;-57
2022/11/18 02:34:59;;;;;;;402.63;360.92;;;;;;;-1.87;100.00;96788.38;7387351;19;20030;-47
2022/11/18 02:37:39;;;;;;;416.33;373.38;;;;;;;-1.81;100.00;96774.44;7384984;19;20454;-57
2022/11/18 02:40:19;;;;;;;409.48;366.42;;;;;;;-1.79;100.00;96770.91;7384619;19;20014;-45
2022/11/18 02:42:58;;;;;;;407.23;364.73;;;;;;;-1.83;100.00;96771.91;7383543;19;20018;-57
2022/11/18 02:45:35;;;;;;;416.08;373.02;;;;;;;-1.98;100.00;96751.81;7381766;19;20021;-45
2022/11/18 02:48:14;;;;;;;419.80;376.20;;;;;;;-1.70;100.00;96762.88;7385206;19;20015;-45
2022/11/18 02:50:50;;;;;;;424.88;381.33;;;;;;;-1.84;100.00;96759.94;7384354;19;20498;-45
2022/11/18 02:53:26;;;;;;;420.58;377.65;;;;;;;-1.82;100.00;96757.31;7384367;19;20501;-45
2022/11/18 02:56:00;;;;;;;424.60;380.42;;;;;;;-1.79;100.00;96763.19;7382037;19;20465;-45
2022/11/18 02:58:33;;;;;;;418.02;375.48;;;;;;;-1.65;100.00;96768.69;7384827;19;20112;-45
2022/11/18 03:01:09;;;;;;;426.05;382.60;;;;;;;-1.92;100.00;96753.34;7382663;19;20019;-58
2022/11/18 03:03:42;;;;;;;443.50;399.23;;;;;;;-1.83;100.00;96761.59;7382245;19;20672;-47
2022/11/18 03:06:28;;;;;;;433.40;389.42;;;;;;;-1.85;100.00;96755.69;7384894;19;20355;-47
2022/11/18 03:09:14;;;;;;;458.95;411.88;;;;;;;-1.68;100.00;96762.81;7383088;19;20011;-45
2022/11/18 03:11:57;;;;;;;434.48;390.45;;;;;;;-1.65;100.00;96752.38;7380826;19;20479;-50
2022/11/18 03:14:38;;;;;;;425.55;382.27;;;;;;;-1.83;100.00;96758.16;7385383;19;20067;-44
2022/11/18 03:17:19;;;;;;;430.75;386.98;;;;;;;-1.82;100.00;96752.97;7379949;19;20011;-57
2022/11/18 03:20:05;;;;;;;419.33;376.15;;;;;;;-1.79;100.00;96750.28;7384754;19;20027;-45
2022/11/18 03:22:46;;;;;;;433.95;389.23;;;;;;;-1.64;100.00;96744.59;7379004;19;20010;-45
2022/11/18 03:25:25;;;;;;;420.98;378.13;;;;;;;-1.82;100.00;96750.41;7387226;19;20326;-45
2022/11/18 03:28:03;;;;;;;438.08;393.77;;;;;;;-1.82;100.00;96736.69;7385393;19;20014;-45
2022/11/18 03:30:40;;;;;;;417.13;374.42;;;;;;;-1.95;100.00;96746.56;7391349;19;20469;-45
2022/11/18 03:33:20;;;;;;;428.45;384.83;;;;;;;-1.50;100.00;96739.78;7387400;19;20015;-58
2022/11/18 03:35:57;;;;;;;421.25;378.50;;;;;;;-1.72;100.00;96741.47;7390997;19;20006;-45
2022/11/18 03:38:35;;;;;;;424.20;380.23;;;;;;;-1.80;100.00;96737.47;7389037;19;20014;-57
2022/11/18 03:41:14;;;;;;;412.20;368.83;;;;;;;-1.83;100.00;96735.00;7391563;19;20014;-49
2022/11/18 03:43:52;;;;;;;421.00;377.00;;;;;;;-1.93;100.00;96719.03;7391661;19;20014;-46
2022/11/18 03:46:28;;;;;;;;;;;;;;;-1.79;100.00;96737.41;7389751;19;20034;-46
2022/11/18 03:49:05;;;;;;;419.42;375.77;;;;;;;-1.92;100.00;96739.56;7389709;19;20322;-45
2022/11/18 03:51:44;;;;;;;424.65;380.23;;;;;;;-1.75;100.00;96736.41;7386468;19;20322;-46
2022/11/18 03:54:21;;;;;;;421.42;378.13;;;;;;;-1.74;100.00;96740.69;7391178;19;20002;-48
2022/11/18 03:57:01;;;;;;;426.13;381.55;;;;;;;-1.87;100.00;96729.13;7387079;19;20007;-45
2022/11/18 03:59:41;;;;;;;425.70;381.83;;;;;;;-1.75;100.00;96733.00;7387072;19;20015;-45
2022/11/18 04:02:19;;;;;;;449.05;403.33;;;;;;;-1.86;100.00;96735.94;7385303;19;20352;-48
2022/11/18 04:04:57;;;;;;;430.77;386.48;;;;;;;-2.07;100.00;96731.56;7389470;19;20465;-46
2022/11/18 04:07:38;;;;;;;451.25;405.33;;;;;;;-2.17;100.00;96737.91;7385686;19;20010;-45
2022/11/18 04:10:19;;;;;;;436.65;391.88;;;;;;;-1.93;100.00;96731.06;7390205;19;20013;-46
2022/11/18 04:12:58;;;;;;;438.02;392.35;;;;;;;-2.06;100.00;96746.09;7383038;19;20019;-48
2022/11/18 04:15:33;;;;;;;426.75;382.98;;;;;;;-2.09;100.00;96753.94;7390429;19;20020;-45
2022/11/18 04:18:06;;;;;;;437.95;393.27;;;;;;;-2.14;100.00;96748.09;7387606;19;20010;-58
2022/11/18 04:20:42;;;;;;;448.55;403.50;;;;;;;-2.22;100.00;96755.25;7389120;19;20327;-44
2022/11/18 04:23:15;;;;;;;429.33;385.02;;;;;;;-2.18;100.00;96749.09;7391869;19;20454;-48
2022/11/18 04:25:51;;;;;;;441.70;396.17;;;;;;;-2.22;100.00;96743.19;7386604;19;20014;-50
2022/11/18 04:28:24;;;;;;;425.15;380.60;;;;;;;-1.99;100.00;96729.56;7390129;19;20382;-45
2022/11/18 04:30:58;;;;;;;425.65;381.30;;;;;;;-1.99;100.00;96711.53;7385497;19;20011;-57
2022/11/18 04:33:31;;;;;;;438.08;393.83;;;;;;;-2.05;100.00;96722.03;7390094;19;20007;-46
2022/11/18 04:36:07;;;;;;;429.85;386.27;;;;;;;-2.15;100.00;96720.66;7387646;19;20390;-45
2022/11/18 04:38:40;;;;;;;442.83;397.67;;;;;;;-2.13;100.00;96714.59;7387947;19;20018;-46
2022/11/18 04:41:13;;;;;;;414.98;372.27;;;;;;;-1.92;100.00;96725.03;7386926;19;20009;-45
2022/11/18 04:43:47;;;;;;;423.38;379.98;;;;;;;-2.05;100.00;96724.59;7386835;19;20003;-49
2022/11/18 04:46:20;;;;;;;411.65;369.17;;;;;;;-2.00;100.00;96727.88;7386802;19;20010;-44
2022/11/18 04:48:53;;;;;;;402.95;361.02;;;;;;;-2.16;100.00;96721.56;7386625;19;20011;-44
2022/11/18 04:51:29;;;;;;;425.83;381.00;;;;;;;-2.16;100.00;96724.97;7381804;19;20022;-45
2022/11/18 04:54:02;;;;;;;408.98;366.17;;;;;;;-1.99;100.00;96714.91;7389580;19;20571;-47
2022/11/18 04:56:35;;;;;;;433.35;389.13;;;;;;;-2.28;100.00;96720.25;7383243;19;20009;-58
2022/11/18 04:59:11;;;;;;;411.63;368.77;;;;;;;-2.20;100.00;96707.09;7388628;19;20335;-50
2022/11/18 05:01:46;;;;;;;433.90;389.90;;;;;;;-2.23;100.00;96720.94;7385565;19;20010;-45
2022/11/18 05:04:21;;;;;;;438.50;393.42;;;;;;;-2.30;100.00;96710.88;7384838;19;20017;-44
2022/11/18 05:06:58;;;;;;;415.50;372.45;;;;;;;-2.19;100.00;96735.38;7388965;19;20014;-45
2022/11/18 05:09:32;;;;;;;426.38;380.92;;;;;;;-2.07;100.00;96747.81;7383538;19;20006;-44
2022/11/18 05:14:50;;;;;;;584.58;501.48;;;;;;;-2.15;100.00;96748.97;7383668;19;20340;-44
2022/11/18 05:17:24;;;;;;;719.65;562.35;;;;;;;-2.28;100.00;96727.13;7388508;19;20010;-46
2022/11/18 05:19:57;;;;;;;712.67;557.53;;;;;;;-2.06;100.00;96734.09;7388202;19;20007;-46
2022/11/18 05:22:33;;;;;;;723.15;570.22;;;;;;;-2.31;100.00;96735.78;7384479;19;20501;-45
2022/11/18 05:25:06;;;;;;;728.38;569.50;;;;;;;-2.20;100.00;96748.28;7387690;19;20015;-44
2022/11/18 05:27:39;;;;;;;737.15;568.78;;;;;;;-2.20;100.00;96746.56;7383297;19;20078;-45
2022/11/18 05:30:14;;;;;;;618.28;526.28;;;;;;;-2.26;100.00;96740.75;7389314;19;20037;-45
2022/11/18 05:32:47;;;;;;;639.83;538.50;;;;;;;-2.27;100.00;96739.94;7388839;19;20013;-47
2022/11/18 05:35:20;;;;;;;644.33;559.03;;;;;;;-2.20;100.00;96743.16;7386140;19;20098;-44
2022/11/18 05:37:56;;;;;;;632.33;540.20;;;;;;;-2.07;100.00;96752.16;7388682;19;20013;-45
2022/11/18 05:40:29;;;;;;;548.50;488.20;;;;;;;-2.23;100.00;96756.13;7380240;19;20462;-44
2022/11/18 05:43:12;;;;;;;574.78;512.35;;;;;;;-2.21;100.00;96759.50;7384653;19;20078;-44
2022/11/18 05:45:46;;;;;;;501.42;448.48;;;;;;;-2.32;100.00;96761.59;7384304;19;20140;-55
2022/11/18 05:48:19;;;;;;;497.08;447.52;;;;;;;-2.26;100.00;96764.78;7386769;19;20411;-50
2022/11/18 05:50:54;;;;;;;502.98;452.48;;;;;;;-2.13;100.00;96771.22;7386470;19;20031;-44
2022/11/18 05:53:30;;;;;;;518.15;466.15;;;;;;;-2.15;100.00;96773.00;7381356;19;20362;-44
2022/11/18 05:56:10;;;;;;;464.45;417.60;;;;;;;-2.23;100.00;96772.41;7387672;19;20399;-45
2022/11/18 05:58:43;;;;;;;458.35;410.95;;;;;;;-2.08;100.00;96779.63;7381711;19;20397;-44
2022/11/18 06:01:17;;;;;;;452.67;406.83;;;;;;;-2.36;100.00;96778.03;7385679;19;20017;-45
2022/11/18 06:03:51;;;;;;;448.08;402.13;;;;;;;-2.09;100.00;96780.53;7385536;19;20002;-45
2022/11/18 06:06:26;;;;;;;467.55;419.95;;;;;;;-1.99;100.00;96779.31;7385877;19;20781;-44
2022/11/18 06:09:08;;;;;;;451.10;405.02;;;;;;;-2.23;100.00;96787.00;7387510;19;20038;-44
2022/11/18 06:11:47;;;;;;;463.77;416.42;;;;;;;-2.02;100.00;96783.72;7386489;19;20014;-45
2022/11/18 06:14:26;;;;;;;464.13;416.90;;;;;;;-2.33;100.00;96772.78;7387392;19;20015;-45
2022/11/18 06:17:03;;;;;;;482.60;433.95;;;;;;;-2.32;100.00;96764.97;7379892;19;20459;-44
2022/11/18 06:19:38;;;;;;;400.00;357.85;;;;;;;-2.22;100.00;96775.84;7386453;19;20021;-45
2022/11/18 06:22:13;;;;;;;417.42;373.33;;;;;;;-2.47;100.00;96769.81;7381550;19;20010;-51
2022/11/18 06:24:49;;;;;;;397.27;354.52;;;;;;;-2.30;100.00;96780.38;7384849;19;20370;-44
2022/11/18 06:27:23;;;;;;;405.23;361.52;;;;;;;-2.54;100.00;96796.63;7386624;19;20014;-48
2022/11/18 06:29:57;;;;;;;449.58;404.25;;;;;;;-2.35;100.00;96796.00;7386569;19;20011;-49
2022/11/18 06:32:30;;;;;;;418.08;373.98;;;;;;;-2.44;100.00;96793.69;7386253;19;20021;-46
2022/11/18 06:35:03;;;;;;;413.02;367.58;;;;;;;-2.33;100.00;96801.09;7381693;19;20014;-44
2022/11/18 06:37:36;;;;;;;416.33;371.88;;;;;;;-2.52;100.00;96805.13;7386592;19;20033;-45
2022/11/18 06:40:14;;;;;;;416.10;372.25;;;;;;;-2.87;100.00;96810.50;7387611;19;20010;-44
2022/11/18 06:45:33;;;;;;;418.77;375.35;;;;;;;-2.97;100.00;96811.66;7385813;19;20018;-44
2022/11/18 06:48:06;;;;;;;416.63;372.15;;;;;;;-2.61;100.00;96811.41;7385128;19;20019;-44
2022/11/18 06:50:40;;;;;;;473.77;426.42;;;;;;;-2.65;100.00;96812.38;7385011;19;20010;-44
2022/11/18 06:53:13;;;;;;;463.38;415.83;;;;;;;-2.77;100.00;96804.22;7379277;19;20010;-45
2022/11/18 06:55:48;;;;;;;510.05;456.20;;;;;;;-2.78;100.00;96807.66;7385975;19;20450;-44
2022/11/18 06:58:24;;;;;;;459.17;412.13;;;;;;;-2.54;100.00;96819.78;7385355;19;20006;-58
2022/11/18 07:00:57;;;;;;;463.85;416.35;;;;;;;-2.53;100.00;96824.88;7389368;19;20007;-47
2022/11/18 07:03:30;;;;;;;554.10;494.98;;;;;;;-2.61;100.00;96823.41;7393838;19;20030;-45
2022/11/18 07:06:05;;;;;;;572.05;510.95;;;;;;;-2.54;100.00;96827.50;7386805;19;20014;-45
2022/11/18 07:08:40;;;;;;;558.70;498.42;;;;;;;-2.79;100.00;96826.56;7392342;19;20461;-45
2022/11/18 07:11:19;;;;;;;511.33;459.00;;;;;;;-3.06;100.00;96817.09;7393532;19;20030;-59
2022/11/18 07:13:52;;;;;;;452.02;406.35;;;;;;;-2.88;100.00;96817.38;7394039;19;20007;-45
2022/11/18 07:16:27;;;;;;;571.35;511.02;;;;;;;-2.61;100.00;96828.56;7393854;19;20366;-45
2022/11/18 07:19:01;;;;;;;546.85;490.23;;;;;;;-2.80;100.00;96830.00;7388307;19;20010;-46
2022/11/18 07:21:35;;;;;;;545.67;489.88;;;;;;;-2.41;100.00;96845.06;7393359;19;20006;-45
2022/11/18 07:24:11;;;;;;;514.38;461.58;;;;;;;-2.58;100.00;96841.34;7389340;19;20018;-53
2022/11/18 07:26:47;;;;;;;429.15;384.60;;;;;;;-2.83;100.00;96845.53;7388848;19;20010;-45
2022/11/18 07:29:21;;;;;;;452.95;408.27;;;;;;;-2.90;100.00;96839.75;7393433;19;20021;-47
2022/11/18 07:31:54;;;;;;;464.70;418.15;;;;;;;-2.68;100.00;96839.94;7392210;19;20555;-48
2022/11/18 07:34:27;;;;;;;458.45;413.27;;;;;;;-2.84;100.00;96841.28;7393705;19;20046;-44
2022/11/18 07:37:00;;;;;;;463.17;416.95;;;;;;;-2.86;100.00;96832.75;7388359;19;20011;-46
2022/11/18 07:39:33;;;;;;;457.15;412.13;;;;;;;-2.64;100.00;96832.09;7391497;19;20030;-45
2022/11/18 07:42:09;;;;;;;445.15;400.20;;;;;;;-2.74;100.00;96829.81;7393127;19;20039;-45
2022/11/18 07:44:42;;;;;;;455.92;410.13;;;;;;;-2.67;100.00;96836.47;7388595;19;20335;-45
2022/11/18 07:47:15;;;;;;;454.33;409.55;;;;;;;-2.82;100.00;96842.91;7390243;19;20015;-45
2022/11/18 07:49:49;;;;;;;444.48;399.70;;;;;;;-2.88;100.00;96831.97;7388858;19;20023;-46
2022/11/18 07:52:22;;;;;;;428.75;384.80;;;;;;;-3.00;100.00;96834.88;7391758;19;20015;-45
2022/11/18 07:54:55;;;;;;;427.45;384.27;;;;;;;-2.93;100.00;96832.09;7391557;19;20015;-46
2022/11/18 07:57:31;;;;;;;446.15;401.20;;;;;;;-2.91;100.00;96827.75;7386957;19;20018;-45
2022/11/18 08:00:05;;;;;;;434.40;390.80;;;;;;;-3.02;100.00;96837.50;7390583;19;20007;-45
2022/11/18 08:02:45;;;;;;;457.45;411.30;;;;;;;-3.07;100.00;96838.50;7386388;19;20014;-45
2022/11/18 08:05:18;;;;;;;441.90;397.65;;;;;;;-3.11;100.00;96836.91;7391562;19;20493;-47
2022/11/18 08:07:51;;;;;;;434.02;390.13;;;;;;;-3.27;100.00;96833.13;7391735;19;20012;-45
2022/11/18 08:10:24;;;;;;;451.25;405.73;;;;;;;-3.12;100.00;96837.81;7389655;19;20011;-44
2022/11/18 08:13:02;;;;;;;451.52;406.25;;;;;;;-2.99;100.00;96834.84;7391497;19;20037;-45
2022/11/18 08:15:35;;;;;;;461.00;414.33;;;;;;;-3.03;100.00;96829.84;7386066;19;20010;-45
2022/11/18 08:18:09;;;;;;;451.27;405.52;;;;;;;-3.11;100.00;96824.06;7391426;19;20081;-45
2022/11/18 08:20:43;;;;;;;439.95;394.80;;;;;;;-3.06;100.00;96817.91;7390930;19;20022;-45
2022/11/18 08:23:17;;;;;;;442.17;396.63;;;;;;;-2.90;100.00;96810.59;7386530;19;20031;-49
2022/11/18 08:25:51;;;;;;;455.98;410.02;;;;;;;-3.12;100.00;96810.41;7386618;19;20030;-52
2022/11/18 08:28:26;;;;;;;469.85;421.20;;;;;;;-3.25;100.00;96801.34;7385052;19;20015;-49
2022/11/18 08:30:59;;;;;;;459.92;413.15;;;;;;;-3.15;100.00;96817.34;7391334;19;20045;-46
2022/11/18 08:33:33;;;;;;;460.17;413.83;;;;;;;-3.19;100.00;96828.59;7390944;19;20017;-45
2022/11/18 08:36:11;;;;;;;458.63;411.95;;;;;;;-3.22;100.00;96833.81;7392463;19;20010;-45
2022/11/18 08:38:44;;;;;;;444.52;399.10;;;;;;;-3.11;100.00;96840.34;7391520;19;20022;-45
2022/11/18 08:41:19;;;;;;;464.25;416.65;;;;;;;-3.03;100.00;96842.72;7386081;19;20450;-46
2022/11/18 08:43:55;;;;;;;454.50;408.48;;;;;;;-3.19;100.00;96862.88;7392876;19;20011;-45
2022/11/18 08:46:28;;;;;;;489.17;440.70;;;;;;;-3.04;100.00;96861.56;7386973;19;20369;-49
2022/11/18 08:49:02;;;;;;;466.15;419.20;;;;;;;-3.25;100.00;96873.31;7390351;19;20007;-54
2022/11/18 08:51:35;;;;;;;467.08;420.33;;;;;;;-3.06;100.00;96866.75;7388705;19;20446;-45
2022/11/18 08:54:08;;;;;;;480.48;431.13;;;;;;;-3.18;100.00;96863.69;7385562;19;20011;-47
2022/11/18 08:56:41;;;;;;;487.20;437.92;;;;;;;-3.07;100.00;96851.38;7391985;19;20010;-45
2022/11/18 08:59:17;;;;;;;478.15;429.48;;;;;;;-3.12;100.00;96871.22;7387647;19;20446;-55
2022/11/18 09:01:50;;;;;;;471.23;423.77;;;;;;;-3.14;100.00;96862.75;7391845;19;20010;-46
2022/11/18 09:04:23;;;;;;;478.92;431.13;;;;;;;-3.04;100.00;96865.00;7391591;19;20018;-45
2022/11/18 09:06:56;;;;;;;486.65;437.90;;;;;;;-2.93;100.00;96862.97;7385115;19;20011;-45
2022/11/18 09:09:30;;;;;;;465.10;417.60;;;;;;;-3.09;100.00;96872.00;7391120;19;20445;-45
2022/11/18 09:12:03;;;;;;;426.35;381.60;;;;;;;-2.80;100.00;96873.75;7391186;19;20015;-56
2022/11/18 09:14:39;;;;;;;417.98;373.52;;;;;;;-2.90;100.00;96867.16;7391636;19;20078;-45
2022/11/18 09:17:13;;;;;;;435.45;390.05;;;;;;;-3.17;100.00;96875.69;7391133;19;20015;-45
2022/11/18 09:19:46;;;;;;;451.00;404.98;;;;;;;-3.04;100.00;96877.00;7386680;19;20018;-44
2022/11/18 09:22:19;;;;;;;462.73;416.13;;;;;;;-3.17;100.00;96880.81;7389373;19;20010;-46
2022/11/18 09:24:53;;;;;;;447.90;402.25;;;;;;;-3.10;100.00;96883.16;7390061;19;20019;-57
2022/11/18 09:27:26;;;;;;;437.92;392.00;;;;;;;-2.96;100.00;96869.91;7389014;19;20011;-45
2022/11/18 09:30:01;;;;;;;436.25;391.05;;;;;;;-3.05;100.00;96875.31;7389345;19;20010;-47
2022/11/18 09:32:34;;;;;;;445.48;398.92;;;;;;;-3.09;100.00;96864.28;7384956;19;20091;-45
2022/11/18 09:35:08;;;;;;;439.55;393.63;;;;;;;-3.05;100.00;96865.91;7390396;19;20014;-44
2022/11/18 09:37:41;;;;;;;445.30;399.67;;;;;;;-3.06;100.00;96865.94;7390290;19;20019;-45
2022/11/18 09:40:21;;;;;;;430.90;385.23;;;;;;;-2.96;100.00;96877.63;7390905;19;20078;-45
2022/11/18 09:43:06;;;;;;;485.73;433.00;;;;;;;-3.12;100.00;96882.38;7390840;19;20375;-45
2022/11/18 09:45:45;;;;;;;433.58;388.23;;;;;;;-3.06;100.00;96879.59;7388314;19;20031;-45
2022/11/18 09:49:11;;;;;;;544.65;483.60;;;;;;;-2.97;100.00;96870.81;7389251;19;20078;-45
2022/11/18 09:51:17;;;;;;;555.00;490.95;;;;;;;-3.21;100.00;96868.94;7389065;19;20014;-45
2022/11/18 09:53:51;;;;;;;562.63;500.40;;;;;;;-3.20;100.00;96874.03;7383809;19;20025;-55
2022/11/18 09:56:26;;;;;;;545.38;481.55;;;;;;;-3.12;100.00;96881.53;7388093;19;20427;-44
2022/11/18 09:59:00;;;;;;;553.83;484.45;;;;;;;-3.07;100.00;96877.09;7390358;19;20015;-44
2022/11/18 10:01:36;;;;;;;578.05;507.35;;;;;;;-3.13;100.00;96879.84;7387182;19;20669;-45
2022/11/18 10:04:10;;;;;;;564.97;502.52;;;;;;;-3.22;100.00;96872.38;7389901;19;20045;-45
2022/11/18 10:06:43;;;;;;;567.42;499.13;;;;;;;-3.15;100.00;96872.16;7383898;19;20003;-45
2022/11/18 10:09:31;;;;;;;519.22;463.23;;;;;;;-3.31;100.00;96867.50;7386980;19;20037;-45
2022/11/18 10:12:19;;;;;;;470.95;421.40;;;;;;;-3.30;100.00;96867.44;7381821;19;20483;-49
2022/11/18 10:15:08;;;;;;;443.70;396.98;;;;;;;-3.29;100.00;96875.97;7378648;19;20010;-47
2022/11/18 10:17:52;;;;;;;434.65;388.63;;;;;;;-2.81;100.00;96866.91;7379918;19;20019;-45
2022/11/18 10:20:35;;;;;;;447.90;401.95;;;;;;;-3.12;100.00;96876.38;7382271;19;20011;-47
2022/11/18 10:23:13;;;;;;;414.25;369.67;;;;;;;-3.02;100.00;96873.50;7378632;19;20070;-44
2022/11/18 10:25:46;;;;;;;;;;;;;;;-3.21;100.00;96879.22;7380306;19;20022;-44
2022/11/18 10:28:28;;;;;;;448.52;401.27;;;;;;;-3.22;100.00;96882.66;7382840;19;19918;-43
2022/11/18 10:31:10;;;;;;;444.42;398.83;;;;;;;-3.25;100.00;96883.56;7384266;19;20007;-43
2022/11/18 10:33:45;;;;;;;432.73;387.40;;;;;;;-3.38;100.00;96887.38;7385563;19;20022;-44
2022/11/18 10:36:33;;;;;;;447.33;401.48;;;;;;;-3.26;100.00;96881.03;7386352;19;20002;-43
2022/11/18 10:39:14;;;;;;;462.77;416.10;;;;;;;-3.26;100.00;96884.47;7386581;19;20006;-44
2022/11/18 10:41:52;;;;;;;444.27;398.60;;;;;;;-3.24;100.00;96884.44;7387807;19;20014;-44
2022/11/18 10:44:41;;;;;;;447.17;400.90;;;;;;;-3.28;100.00;96890.53;7386642;19;20014;-44
2022/11/18 10:47:36;;;;;;;440.30;394.95;;;;;;;-3.21;100.00;96885.19;7382587;19;20022;-46
2022/11/18 10:50:34;;;;;;;437.15;391.65;;;;;;;-3.22;100.00;96886.06;7384179;19;20007;-43
2022/11/18 10:53:11;;;;;;;459.20;413.08;;;;;;;-3.28;100.00;96898.25;7384990;19;20019;-44
2022/11/18 10:55:45;;;;;;;465.60;418.83;;;;;;;-3.10;100.00;96893.44;7385378;19;20038;-44
2022/11/18 10:58:20;;;;;;;461.00;414.25;;;;;;;-3.10;100.00;96887.47;7386602;19;20541;-43
2022/11/18 11:00:54;;;;;;;453.30;407.17;;;;;;;-2.90;100.00;96890.31;7385656;19;20027;-44
2022/11/18 11:03:48;;;;;;;452.05;405.13;;;;;;;-2.96;100.00;96891.34;7382511;19;20015;-44
2022/11/18 11:06:40;;;;;;;431.75;386.90;;;;;;;-2.72;100.00;96894.94;7383492;19;20082;-49
2022/11/18 11:09:31;;;;;;;435.98;391.58;;;;;;;-3.09;100.00;96896.88;7384616;19;20086;-44
2022/11/18 11:12:09;;;;;;;454.48;407.77;;;;;;;-3.00;100.00;96891.44;7381110;19;20015;-44
2022/11/18 11:14:54;;;;;;;442.90;397.98;;;;;;;-2.69;100.00;96894.84;7384357;19;20053;-44
2022/11/18 11:17:35;;;;;;;453.58;407.05;;;;;;;-2.96;100.00;96893.91;7379412;19;20433;-44
2022/11/18 11:20:15;;;;;;;456.70;411.17;;;;;;;-2.81;100.00;96895.22;7383919;19;20697;-44
2022/11/18 11:22:51;;;;;;;447.83;402.08;;;;;;;-2.67;100.00;96893.06;7382122;19;20501;-44
2022/11/18 11:25:34;;;;;;;428.50;383.85;;;;;;;-2.74;100.00;96887.25;7385935;19;20014;-43
2022/11/18 11:28:14;;;;;;;459.17;412.73;;;;;;;-2.87;100.00;96896.22;7379499;19;20006;-45
2022/11/18 11:30:55;;;;;;;445.90;400.98;;;;;;;-2.67;100.00;96898.19;7383736;19;20006;-44
2022/11/18 11:33:35;;;;;;;475.77;428.02;;;;;;;-2.82;100.00;96902.06;7379935;19;20011;-44
2022/11/18 11:36:33;;;;;;;450.23;404.60;;;;;;;-2.85;100.00;96903.88;7385466;19;20024;-49
2022/11/18 11:39:19;;;;;;;428.15;383.40;;;;;;;-2.88;100.00;96914.28;7384096;19;20015;-44
2022/11/18 11:42:00;;;;;;;442.77;396.48;;;;;;;-2.62;100.00;96907.47;7377771;19;20014;-46
2022/11/18 11:44:44;;;;;;;411.50;367.60;;;;;;;-3.05;100.00;96909.59;7386823;19;20030;-46
2022/11/18 11:50:23;;;;;;;487.10;439.85;;;;;;;-2.93;100.00;96893.81;7391848;19;20022;-46